Time;durP1;ratioP1;P1;durP2;ratioP2;P2;SDS_P1;SDS_P2;PMS_P1;PMS_P2;Temp;Humidity;BMP_temperature;BMP_pressure;BME280_temperature;BME280_humidity;BME280_pressure;Samples;Min_cycle;Max_cycle;Signal;HPM_P1;HPM_P2
2020/12/29 00:02:01;;;;;;;38.90;20.72;;;;;;;-0.38;84.75;100222.57;1694991;84;22957;-65
2020/12/29 00:04:28;;;;;;;31.10;19.12;;;;;;;-0.39;84.78;100218.25;1694833;84;21193;-65
2020/12/29 00:06:56;;;;;;;36.33;21.95;;;;;;;-0.39;84.81;100210.47;1694973;84;21332;-66
2020/12/29 00:09:28;;;;;;;48.63;29.45;;;;;;;-0.40;84.84;100207.48;1693377;83;21095;-65
2020/12/29 00:11:57;;;;;;;34.95;22.80;;;;;;;-0.39;84.84;100215.20;1707996;81;21173;-65
2020/12/29 00:14:24;;;;;;;36.80;22.17;;;;;;;-0.39;84.88;100211.31;1718402;83;22128;-66
2020/12/29 00:16:52;;;;;;;32.67;20.72;;;;;;;-0.40;84.86;100212.67;1718385;81;21553;-66
2020/12/29 00:19:24;;;;;;;34.58;21.73;;;;;;;-0.41;84.89;100207.09;1695876;83;21098;-66
2020/12/29 00:21:52;;;;;;;37.10;22.93;;;;;;;-0.42;84.90;100209.30;1717764;83;21348;-66
2020/12/29 00:24:20;;;;;;;31.87;17.65;;;;;;;-0.43;84.92;100205.02;1723934;83;21150;-66
2020/12/29 00:26:50;;;;;;;44.98;26.48;;;;;;;-0.44;84.96;100196.37;1709963;83;22089;-66
2020/12/29 00:29:18;;;;;;;42.10;24.63;;;;;;;-0.43;84.95;100197.23;1704951;83;21204;-66
2020/12/29 00:31:46;;;;;;;47.05;28.38;;;;;;;-0.44;85.00;100191.65;1708125;82;21146;-66
2020/12/29 00:34:14;;;;;;;36.85;22.07;;;;;;;-0.45;84.99;100175.23;1711306;83;21090;-66
2020/12/29 00:36:42;;;;;;;39.53;23.77;;;;;;;-0.45;85.00;100172.64;1722191;83;21114;-66
2020/12/29 00:39:10;;;;;;;38.25;22.65;;;;;;;-0.45;85.03;100173.94;1717852;83;22056;-66
2020/12/29 00:41:40;;;;;;;32.95;18.87;;;;;;;-0.45;85.03;100171.34;1713936;83;21162;-65
2020/12/29 00:44:08;;;;;;;30.95;18.45;;;;;;;-0.45;85.08;100175.23;1715787;83;21134;-65
2020/12/29 00:46:36;;;;;;;26.68;16.95;;;;;;;-0.47;85.09;100156.75;1695764;83;21146;-65
2020/12/29 00:49:04;;;;;;;29.00;17.87;;;;;;;-0.46;85.14;100153.24;1695080;84;21066;-65
2020/12/29 00:51:33;;;;;;;36.20;23.18;;;;;;;-0.47;85.11;100139.42;1695982;83;21890;-65
2020/12/29 00:54:02;;;;;;;27.77;17.67;;;;;;;-0.46;85.12;100141.56;1714695;83;21149;-66
2020/12/29 00:56:33;;;;;;;30.95;18.17;;;;;;;-0.44;85.17;100134.56;1708176;82;21098;-66
2020/12/29 00:59:01;;;;;;;29.45;17.57;;;;;;;-0.45;85.16;100131.58;1707738;83;21075;-66
2020/12/29 01:01:30;;;;;;;31.90;20.05;;;;;;;-0.45;85.21;100138.06;1717993;83;21557;-66
2020/12/29 01:04:16;;;;;;;31.15;17.27;;;;;;;-0.46;85.19;100132.03;1707440;83;21905;-65
2020/12/29 01:06:44;;;;;;;32.85;20.17;;;;;;;-0.46;85.21;100127.30;1715998;83;21086;-65
2020/12/29 01:09:14;;;;;;;34.35;21.35;;;;;;;-0.47;85.21;100122.56;1696830;83;21099;-65
2020/12/29 01:11:42;;;;;;;26.55;16.02;;;;;;;-0.48;85.23;100108.33;1680331;83;21177;-65
2020/12/29 01:14:10;;;;;;;29.18;17.30;;;;;;;-0.49;85.26;100099.70;1707066;83;21130;-65
2020/12/29 01:16:40;;;;;;;27.15;16.67;;;;;;;-0.50;85.26;100104.50;1715243;83;22037;-65
2020/12/29 01:19:08;;;;;;;26.45;15.70;;;;;;;-0.52;85.29;100102.42;1696690;83;21161;-65
2020/12/29 01:21:35;;;;;;;26.55;16.82;;;;;;;-0.52;85.31;100105.47;1696930;83;21207;-65
2020/12/29 01:24:03;;;;;;;31.85;19.65;;;;;;;-0.53;85.30;100115.00;1696420;83;21075;-65
2020/12/29 01:26:31;;;;;;;28.17;16.87;;;;;;;-0.51;85.33;100117.53;1710665;83;21114;-65
2020/12/29 01:28:59;;;;;;;29.90;17.62;;;;;;;-0.51;85.34;100107.16;1695803;83;24365;-65
2020/12/29 01:31:29;;;;;;;29.65;18.50;;;;;;;-0.52;85.36;100096.39;1698227;83;21094;-65
2020/12/29 01:34:00;;;;;;;30.52;18.50;;;;;;;-0.55;85.40;100106.89;1696673;83;21114;-65
2020/12/29 01:36:28;;;;;;;32.50;20.02;;;;;;;-0.57;85.43;100107.41;1711483;83;21055;-64
2020/12/29 01:38:57;;;;;;;29.65;17.95;;;;;;;-0.59;85.45;100103.55;1700139;83;21062;-65
2020/12/29 01:41:25;;;;;;;35.85;21.27;;;;;;;-0.61;85.47;100111.39;1704543;83;22062;-65
2020/12/29 01:43:53;;;;;;;37.13;23.85;;;;;;;-0.60;85.50;100105.30;1701325;83;21086;-65
2020/12/29 01:46:20;;;;;;;44.75;25.90;;;;;;;-0.60;85.52;100081.95;1711119;83;21118;-65
2020/12/29 01:48:48;;;;;;;44.05;26.65;;;;;;;-0.60;85.53;100078.06;1703590;83;22718;-65
2020/12/29 01:51:15;;;;;;;36.20;21.45;;;;;;;-0.59;85.57;100086.69;1718749;83;21118;-65
2020/12/29 01:53:44;;;;;;;34.83;19.62;;;;;;;-0.58;85.57;100101.34;1695744;83;22045;-64
2020/12/29 01:56:11;;;;;;;40.35;24.67;;;;;;;-0.60;85.60;100097.52;1697089;83;21561;-64
2020/12/29 01:58:41;;;;;;;33.40;18.05;;;;;;;-0.60;85.64;100076.77;1670396;83;21118;-65
2020/12/29 02:01:09;;;;;;;34.25;19.85;;;;;;;-0.59;85.65;100078.91;1721893;83;21177;-65
2020/12/29 02:03:38;;;;;;;40.03;21.48;;;;;;;-0.60;85.67;100065.55;1715922;83;21162;-64
2020/12/29 02:06:05;;;;;;;40.52;24.12;;;;;;;-0.62;85.71;100065.61;1722557;83;22085;-65
2020/12/29 02:08:33;;;;;;;48.98;28.73;;;;;;;-0.62;85.74;100067.36;1695951;83;22592;-65
2020/12/29 02:11:01;;;;;;;47.62;27.42;;;;;;;-0.62;85.77;100086.81;1663820;83;21010;-65
2020/12/29 02:13:29;;;;;;;42.95;25.12;;;;;;;-0.60;85.78;100086.30;1702692;83;21202;-65
2020/12/29 02:15:57;;;;;;;41.28;23.55;;;;;;;-0.60;85.81;100088.44;1713966;82;21082;-67
2020/12/29 02:18:25;;;;;;;56.55;33.00;;;;;;;-0.60;85.82;100076.77;1723887;82;21886;-64
2020/12/29 02:20:53;;;;;;;48.20;30.40;;;;;;;-0.61;85.87;100077.67;1694958;84;21078;-65
2020/12/29 02:23:20;;;;;;;40.73;23.73;;;;;;;-0.61;85.88;100077.67;1704971;83;21190;-66
2020/12/29 02:25:50;;;;;;;44.98;26.62;;;;;;;-0.60;85.89;100069.44;1722939;82;21668;-68
2020/12/29 02:28:18;;;;;;;51.40;30.43;;;;;;;-0.61;85.94;100065.16;1689284;84;21185;-66
2020/12/29 02:30:48;;;;;;;48.23;28.25;;;;;;;-0.60;85.92;100069.44;1695013;83;22612;-67
2020/12/29 02:33:19;;;;;;;55.25;33.15;;;;;;;-0.61;85.96;100066.00;1694952;83;21086;-67
2020/12/29 02:35:47;;;;;;;56.00;32.23;;;;;;;-0.62;85.99;100063.02;1695027;84;21075;-66
2020/12/29 02:38:24;;;;;;;58.70;33.25;;;;;;;-0.62;86.00;100059.12;1695056;84;21106;-65
2020/12/29 02:40:52;;;;;;;42.95;24.92;;;;;;;-0.61;86.01;100067.30;1695007;84;21490;-65
2020/12/29 02:43:21;;;;;;;51.33;30.77;;;;;;;-0.60;86.03;100078.06;1702176;83;21965;-65
2020/12/29 02:45:48;;;;;;;51.80;31.05;;;;;;;-0.60;86.06;100062.50;1712497;83;21170;-65
2020/12/29 02:48:16;;;;;;;48.25;27.67;;;;;;;-0.59;86.07;100061.59;1700426;83;21099;-65
2020/12/29 02:50:43;;;;;;;59.77;34.78;;;;;;;-0.57;86.11;100055.08;1695637;83;21086;-65
2020/12/29 02:53:12;;;;;;;47.20;27.93;;;;;;;-0.59;86.13;100046.03;1696463;83;21568;-65
2020/12/29 02:55:41;;;;;;;56.35;32.70;;;;;;;-0.59;86.15;100041.30;1705830;83;22114;-65
2020/12/29 02:58:09;;;;;;;47.70;27.10;;;;;;;-0.58;86.16;100050.77;1684662;83;21162;-65
2020/12/29 03:00:39;;;;;;;46.88;27.90;;;;;;;-0.59;86.19;100059.00;1700964;83;21485;-65
2020/12/29 03:03:07;;;;;;;60.52;33.05;;;;;;;-0.59;86.19;100059.00;1705553;83;21087;-65
2020/12/29 03:05:35;;;;;;;55.23;30.27;;;;;;;-0.56;86.22;100045.55;1710716;83;21505;-65
2020/12/29 03:08:03;;;;;;;57.33;33.25;;;;;;;-0.56;86.25;100055.47;1703756;83;21912;-65
2020/12/29 03:10:31;;;;;;;39.42;23.00;;;;;;;-0.54;86.27;100052.81;1695026;83;21149;-65
2020/12/29 03:12:59;;;;;;;51.80;29.27;;;;;;;-0.54;86.28;100054.11;1695633;83;21007;-65
2020/12/29 03:15:27;;;;;;;52.00;28.35;;;;;;;-0.55;86.32;100038.16;1705018;83;21197;-67
2020/12/29 03:17:55;;;;;;;54.27;29.48;;;;;;;-0.56;86.35;100029.53;1753159;81;21074;-65
2020/12/29 03:20:22;;;;;;;41.28;23.67;;;;;;;-0.55;86.35;100019.99;1758285;81;23045;-65
2020/12/29 03:22:50;;;;;;;45.23;26.23;;;;;;;-0.55;86.39;100017.40;1737611;81;21153;-65
2020/12/29 03:25:18;;;;;;;52.03;28.47;;;;;;;-0.57;86.40;100013.58;1729376;81;21065;-65
2020/12/29 03:27:46;;;;;;;39.67;23.25;;;;;;;-0.59;86.43;100017.50;1756205;81;21090;-65
2020/12/29 03:30:13;;;;;;;41.08;25.02;;;;;;;-0.57;86.46;100007.55;1733681;81;21082;-65
2020/12/29 03:32:41;;;;;;;57.23;27.58;;;;;;;-0.56;86.50;100015.72;1742066;81;21847;-65
2020/12/29 03:35:09;;;;;;;35.35;20.10;;;;;;;-0.58;86.55;100013.16;1729699;81;21205;-65
2020/12/29 03:37:36;;;;;;;41.68;20.57;;;;;;;-0.57;86.56;100015.33;1734497;81;21066;-65
2020/12/29 03:40:04;;;;;;;46.83;24.67;;;;;;;-0.56;86.59;100023.50;1758157;81;21082;-64
2020/12/29 03:42:33;;;;;;;36.08;19.62;;;;;;;-0.56;86.62;100012.67;1756123;81;21417;-64
2020/12/29 03:45:02;;;;;;;36.23;19.48;;;;;;;-0.54;86.64;100017.78;1738077;81;22063;-65
2020/12/29 03:47:31;;;;;;;43.40;21.50;;;;;;;-0.54;86.67;100021.68;1736983;81;21133;-65
2020/12/29 03:49:59;;;;;;;41.85;22.93;;;;;;;-0.53;86.69;100035.04;1751779;81;21172;-65
2020/12/29 03:52:27;;;;;;;33.23;18.02;;;;;;;-0.52;86.71;100034.13;1728751;81;22656;-64
2020/12/29 03:54:55;;;;;;;44.85;22.90;;;;;;;-0.51;86.73;100022.84;1728084;83;21082;-65
2020/12/29 03:57:22;;;;;;;35.48;20.40;;;;;;;-0.49;86.76;100034.00;1728807;81;22158;-65
2020/12/29 03:59:50;;;;;;;35.73;18.05;;;;;;;-0.50;86.78;100027.97;1745728;81;21137;-65
2020/12/29 04:02:18;;;;;;;30.30;18.00;;;;;;;-0.49;86.81;100019.73;1739054;81;21397;-66
2020/12/29 04:04:46;;;;;;;24.80;14.87;;;;;;;-0.50;86.82;100024.53;1743106;81;21066;-66
2020/12/29 04:07:14;;;;;;;35.10;19.57;;;;;;;-0.49;86.82;100015.84;1745041;81;21165;-66
2020/12/29 04:09:41;;;;;;;42.03;20.52;;;;;;;-0.49;86.86;100003.71;1732197;81;22143;-66
2020/12/29 04:12:09;;;;;;;31.07;17.60;;;;;;;-0.49;86.86;99995.09;1733993;81;21117;-66
2020/12/29 04:14:37;;;;;;;33.28;17.85;;;;;;;-0.49;86.91;100005.46;1728831;81;21481;-66
2020/12/29 04:17:06;;;;;;;43.23;23.52;;;;;;;-0.50;86.95;100016.30;1728066;81;21090;-65
2020/12/29 04:19:34;;;;;;;33.55;18.50;;;;;;;-0.50;86.95;100011.56;1752273;81;21504;-66
2020/12/29 04:22:02;;;;;;;30.72;16.37;;;;;;;-0.49;86.98;100016.69;1737874;81;22067;-66
2020/12/29 04:24:31;;;;;;;31.50;17.02;;;;;;;-0.47;87.00;100006.27;1731403;81;21153;-65
2020/12/29 04:26:59;;;;;;;40.30;21.37;;;;;;;-0.46;87.02;100006.66;1730211;81;21208;-66
2020/12/29 04:29:27;;;;;;;37.95;20.80;;;;;;;-0.47;87.03;100022.68;1729072;81;21093;-65
2020/12/29 04:31:55;;;;;;;39.30;20.52;;;;;;;-0.46;87.07;100010.55;1732723;81;21509;-65
2020/12/29 04:34:23;;;;;;;32.80;19.10;;;;;;;-0.45;87.08;99998.81;1754254;81;22070;-66
2020/12/29 04:36:54;;;;;;;29.32;16.70;;;;;;;-0.44;87.09;100000.50;1744020;81;22576;-66
2020/12/29 04:39:22;;;;;;;33.20;16.48;;;;;;;-0.44;87.12;100003.09;1739069;81;21121;-66
2020/12/29 04:41:52;;;;;;;27.77;16.15;;;;;;;-0.42;87.13;100000.42;1730723;81;21193;-66
2020/12/29 04:44:21;;;;;;;24.40;14.87;;;;;;;-0.42;87.13;99999.13;1742309;81;21118;-66
2020/12/29 04:46:49;;;;;;;37.98;19.55;;;;;;;-0.40;87.14;99994.72;1728999;81;23206;-66
2020/12/29 04:49:17;;;;;;;23.42;13.03;;;;;;;-0.39;87.14;99992.05;1746570;81;21099;-66
2020/12/29 04:51:45;;;;;;;29.18;16.55;;;;;;;-0.39;87.16;99982.97;1755646;81;21058;-65
2020/12/29 04:54:14;;;;;;;33.58;18.73;;;;;;;-0.38;87.17;99983.39;1742525;81;21149;-66
2020/12/29 04:56:43;;;;;;;25.35;15.40;;;;;;;-0.38;87.17;99990.34;1729688;81;21129;-66
2020/12/29 04:59:11;;;;;;;25.72;14.90;;;;;;;-0.39;87.18;99991.21;1730480;81;22148;-66
2020/12/29 05:01:40;;;;;;;33.73;17.32;;;;;;;-0.37;87.20;99994.16;1740389;81;22592;-66
2020/12/29 05:04:08;;;;;;;34.53;18.30;;;;;;;-0.38;87.21;99997.66;1748212;81;21081;-66
2020/12/29 05:06:36;;;;;;;34.92;20.32;;;;;;;-0.36;87.22;100002.33;1734619;81;21201;-65
2020/12/29 05:09:04;;;;;;;28.27;17.12;;;;;;;-0.35;87.24;100005.77;1732360;81;21115;-66
2020/12/29 05:11:34;;;;;;;38.67;19.80;;;;;;;-0.35;87.25;100010.50;1711937;83;22080;-66
2020/12/29 05:14:05;;;;;;;39.75;24.02;;;;;;;-0.35;87.26;100013.09;1746690;81;21117;-66
2020/12/29 05:16:40;;;;;;;36.63;20.48;;;;;;;-0.34;87.27;100016.08;1733104;81;21137;-65
2020/12/29 05:19:10;;;;;;;46.75;25.15;;;;;;;-0.33;87.27;100032.49;1685799;84;21137;-65
2020/12/29 05:21:41;;;;;;;52.27;28.12;;;;;;;-0.32;87.28;100026.39;1692237;84;21145;-65
2020/12/29 05:24:17;;;;;;;43.40;24.00;;;;;;;-0.33;87.30;100043.72;1670762;84;21912;-65
2020/12/29 05:26:49;;;;;;;36.58;21.10;;;;;;;-0.31;87.30;100039.76;1686802;84;21089;-67
2020/12/29 05:29:16;;;;;;;32.13;18.95;;;;;;;-0.30;87.31;100016.79;1670750;85;21382;-66
2020/12/29 05:31:47;;;;;;;35.83;20.62;;;;;;;-0.28;87.32;100007.67;1674120;84;21180;-68
2020/12/29 05:34:23;;;;;;;38.83;21.57;;;;;;;-0.28;87.35;99991.64;1698506;84;21073;-68
2020/12/29 05:36:51;;;;;;;36.88;20.30;;;;;;;-0.27;87.35;99987.30;1695328;83;21870;-68
2020/12/29 05:39:21;;;;;;;41.33;25.17;;;;;;;-0.27;87.35;99990.73;1686480;84;21180;-68
2020/12/29 05:41:51;;;;;;;32.03;18.92;;;;;;;-0.27;87.36;99988.14;1675147;84;21252;-67
2020/12/29 05:44:30;;;;;;;39.83;21.75;;;;;;;-0.25;87.38;99993.27;1688364;84;21109;-66
2020/12/29 05:47:01;;;;;;;38.58;22.27;;;;;;;-0.24;87.38;100000.14;1674884;84;21189;-66
2020/12/29 05:49:29;;;;;;;33.90;19.57;;;;;;;-0.24;87.38;99991.05;1680432;84;22074;-67
2020/12/29 05:51:57;;;;;;;34.13;17.32;;;;;;;-0.24;87.40;99986.70;1657473;84;21263;-67
2020/12/29 05:54:27;;;;;;;46.45;22.82;;;;;;;-0.23;87.39;99987.55;1679214;84;21133;-67
2020/12/29 05:56:55;;;;;;;33.78;17.67;;;;;;;-0.24;87.40;99989.30;1682132;84;21315;-68
2020/12/29 05:59:24;;;;;;;29.57;16.73;;;;;;;-0.24;87.41;99989.30;1683185;83;21128;-68
2020/12/29 06:01:53;;;;;;;33.58;19.20;;;;;;;-0.23;87.40;99999.23;1676594;84;22802;-67
2020/12/29 06:04:21;;;;;;;30.20;18.15;;;;;;;-0.23;87.42;100000.53;1698713;84;21173;-67
2020/12/29 06:06:50;;;;;;;33.10;19.73;;;;;;;-0.22;87.43;100011.30;1687027;84;21180;-68
2020/12/29 06:09:20;;;;;;;33.53;18.45;;;;;;;-0.22;87.42;100006.10;1675797;83;21112;-69
2020/12/29 06:11:53;;;;;;;36.33;21.33;;;;;;;-0.22;87.43;100023.81;1640273;87;21636;-69
2020/12/29 06:14:24;;;;;;;30.05;17.17;;;;;;;-0.22;87.44;100019.92;1640998;86;21913;-69
2020/12/29 06:16:56;;;;;;;30.97;17.73;;;;;;;-0.22;87.45;100001.76;1651481;84;21146;-68
2020/12/29 06:19:28;;;;;;;30.65;18.02;;;;;;;-0.21;87.46;99991.77;1658506;85;21502;-67
2020/12/29 06:22:11;;;;;;;25.68;15.60;;;;;;;-0.21;87.46;99985.73;1673983;85;21109;-67
2020/12/29 06:24:42;;;;;;;28.07;17.20;;;;;;;-0.21;87.47;99981.83;1654420;85;21230;-66
2020/12/29 06:27:11;;;;;;;27.70;16.05;;;;;;;-0.23;87.48;99983.20;1653647;86;21586;-66
2020/12/29 06:29:41;;;;;;;39.30;21.17;;;;;;;-0.22;87.52;99998.31;1665443;85;21482;-66
2020/12/29 06:32:17;;;;;;;31.65;19.07;;;;;;;-0.23;87.51;99987.55;1668175;86;21203;-67
2020/12/29 06:34:48;;;;;;;33.60;19.90;;;;;;;-0.22;87.52;99984.05;1668144;85;21083;-67
2020/12/29 06:37:27;;;;;;;25.57;14.85;;;;;;;-0.22;87.54;99982.29;1642748;85;21107;-67
2020/12/29 06:40:06;;;;;;;27.37;16.55;;;;;;;-0.21;87.54;99977.48;1674446;85;22059;-66
2020/12/29 06:42:40;;;;;;;24.37;16.12;;;;;;;-0.21;87.54;99971.45;1668160;85;21190;-66
2020/12/29 06:45:11;;;;;;;30.05;17.35;;;;;;;-0.20;87.56;99973.14;1681048;85;21182;-66
2020/12/29 06:47:45;;;;;;;30.40;15.18;;;;;;;-0.22;87.58;99980.15;1672821;85;21115;-68
2020/12/29 06:50:31;;;;;;;29.20;17.40;;;;;;;-0.21;87.57;99976.19;1668227;86;21130;-66
2020/12/29 06:53:04;;;;;;;33.28;19.98;;;;;;;-0.20;87.60;99966.20;1668174;86;22088;-76
2020/12/29 06:55:39;;;;;;;;;;;;;;;-0.18;87.62;99967.45;1675538;85;21157;-66
2020/12/29 06:58:07;;;;;;;28.07;15.70;;;;;;;-0.17;87.62;99971.28;1654468;85;20229;-68
2020/12/29 07:00:35;;;;;;;26.48;16.52;;;;;;;-0.18;87.63;99985.17;1653567;86;21523;-68
2020/12/29 07:03:03;;;;;;;33.78;20.62;;;;;;;-0.17;87.64;99984.71;1656500;85;21443;-67
2020/12/29 07:05:36;;;;;;;25.25;16.50;;;;;;;-0.17;87.67;99987.31;1668009;86;21990;-69
2020/12/29 07:08:07;;;;;;;30.50;16.40;;;;;;;-0.16;87.69;99979.91;1672608;85;21111;-68
2020/12/29 07:10:46;;;;;;;29.42;16.82;;;;;;;-0.14;87.68;99989.31;1681072;85;21078;-68
2020/12/29 07:13:16;;;;;;;27.58;16.30;;;;;;;-0.14;87.70;99986.72;1681070;85;21074;-69
2020/12/29 07:15:50;;;;;;;28.98;17.60;;;;;;;-0.13;87.71;99994.05;1636934;86;21093;-68
2020/12/29 07:18:28;;;;;;;36.28;19.42;;;;;;;-0.13;87.71;99984.50;1656974;86;21898;-68
2020/12/29 07:20:57;;;;;;;30.92;19.32;;;;;;;-0.12;87.74;99991.38;1694944;84;21097;-68
2020/12/29 07:23:28;;;;;;;32.60;18.45;;;;;;;-0.14;87.74;99984.12;1675567;84;21402;-67
2020/12/29 07:25:59;;;;;;;35.30;20.15;;;;;;;-0.12;87.76;99984.89;1653542;84;21091;-67
2020/12/29 07:28:29;;;;;;;31.70;18.48;;;;;;;-0.13;87.77;99984.50;1695010;84;21086;-67
2020/12/29 07:30:57;;;;;;;41.83;22.27;;;;;;;-0.13;87.79;99994.89;1696843;83;21968;-67
2020/12/29 07:33:26;;;;;;;32.03;17.17;;;;;;;-0.11;87.81;99993.52;1723866;82;21079;-67
2020/12/29 07:35:54;;;;;;;36.48;19.52;;;;;;;-0.09;87.81;99986.54;1723956;83;21463;-67
2020/12/29 07:38:24;;;;;;;29.95;16.10;;;;;;;-0.08;87.84;99990.36;1723873;83;21127;-67
2020/12/29 07:40:52;;;;;;;37.20;21.42;;;;;;;-0.07;87.81;99984.72;1723977;82;21549;-67
2020/12/29 07:43:20;;;;;;;35.38;21.15;;;;;;;-0.06;87.83;99980.75;1723906;83;22077;-67
2020/12/29 07:45:48;;;;;;;32.13;17.82;;;;;;;-0.06;87.85;99975.56;1723887;82;21086;-67
2020/12/29 07:48:16;;;;;;;42.60;23.55;;;;;;;-0.05;87.86;99974.65;1722887;82;21142;-67
2020/12/29 07:50:44;;;;;;;41.18;21.35;;;;;;;-0.05;87.87;99975.95;1723907;83;21094;-67
2020/12/29 07:53:12;;;;;;;39.50;21.25;;;;;;;-0.04;87.88;99980.23;1723913;83;21162;-67
2020/12/29 07:55:42;;;;;;;37.35;20.95;;;;;;;-0.03;87.90;99970.23;1723927;83;22134;-67
2020/12/29 07:58:09;;;;;;;31.50;18.17;;;;;;;-0.02;87.90;99962.83;1723880;83;21186;-68
2020/12/29 08:00:39;;;;;;;33.45;19.00;;;;;;;-0.01;87.92;99960.61;1723668;83;32980;-67
2020/12/29 08:03:07;;;;;;;39.65;21.40;;;;;;;0.01;87.93;99964.93;1723998;83;21379;-67
2020/12/29 08:05:35;;;;;;;41.95;21.93;;;;;;;0.02;87.93;99947.14;1722877;82;21091;-68
2020/12/29 08:08:06;;;;;;;35.85;21.25;;;;;;;0.03;87.94;99944.93;1723841;83;21989;-68
2020/12/29 08:10:40;;;;;;;36.08;19.87;;;;;;;0.03;87.95;99949.66;1723875;83;21122;-68
2020/12/29 08:13:10;;;;;;;39.33;21.42;;;;;;;0.03;87.96;99960.05;1723670;83;21082;-68
2020/12/29 08:15:40;;;;;;;37.75;20.05;;;;;;;0.05;87.99;99956.08;1722547;82;21387;-67
2020/12/29 08:18:18;;;;;;;40.75;20.43;;;;;;;0.05;87.99;99956.92;1718581;82;21058;-68
2020/12/29 08:20:51;;;;;;;38.30;22.67;;;;;;;0.07;88.01;99967.24;1722851;83;21943;-68
2020/12/29 08:23:21;;;;;;;34.63;20.68;;;;;;;0.09;88.02;99961.52;1722910;82;21169;-68
2020/12/29 08:25:59;;;;;;;45.00;24.00;;;;;;;0.10;88.02;99959.34;1689718;83;21499;-68
2020/12/29 08:28:33;;;;;;;38.08;22.98;;;;;;;0.12;88.05;99964.85;1723886;83;21091;-68
2020/12/29 08:31:01;;;;;;;;;;;;;;;0.14;88.07;99963.03;1726624;83;21107;-68
2020/12/29 08:33:29;;;;;;;34.80;20.30;;;;;;;0.16;88.05;99955.16;1723897;83;22086;-67
2020/12/29 08:36:01;;;;;;;48.00;26.70;;;;;;;0.16;88.10;99944.77;1689609;83;21243;-67
2020/12/29 08:38:42;;;;;;;51.60;25.45;;;;;;;0.17;88.12;99954.25;1723940;83;21051;-67
2020/12/29 08:41:26;;;;;;;58.63;27.52;;;;;;;0.17;88.11;99943.86;1722899;83;21186;-69
2020/12/29 08:43:53;;;;;;;41.92;21.55;;;;;;;0.21;88.14;99925.50;1724070;82;21111;-68
2020/12/29 08:46:24;;;;;;;38.30;20.68;;;;;;;0.24;88.15;99919.31;1724023;82;23250;-68
2020/12/29 08:49:02;;;;;;;37.45;21.95;;;;;;;0.25;88.15;99919.70;1723911;83;21130;-68
2020/12/29 08:51:35;;;;;;;46.40;25.20;;;;;;;0.27;88.16;99917.87;1723892;83;21114;-69
2020/12/29 08:54:13;;;;;;;46.70;25.35;;;;;;;0.28;88.17;99929.48;1723827;82;21137;-68
2020/12/29 08:56:42;;;;;;;43.23;23.47;;;;;;;0.30;88.17;99924.70;1713630;83;21109;-68
2020/12/29 08:59:20;;;;;;;49.00;25.80;;;;;;;0.31;88.19;99895.22;1694922;84;22139;-68
2020/12/29 09:01:57;;;;;;;40.60;22.42;;;;;;;0.33;88.20;99881.24;1696443;83;21198;-68
2020/12/29 09:04:40;;;;;;;41.10;21.75;;;;;;;0.36;88.20;99881.55;1708945;83;21082;-68
2020/12/29 09:07:15;;;;;;;48.98;24.37;;;;;;;0.38;88.22;99888.35;1689931;85;21066;-67
2020/12/29 09:09:56;;;;;;;35.23;18.60;;;;;;;0.39;88.21;99891.37;1689854;85;21062;-68
2020/12/29 09:12:32;;;;;;;34.60;19.87;;;;;;;0.42;88.24;99886.48;1689785;85;21952;-67
2020/12/29 09:15:07;;;;;;;49.20;24.92;;;;;;;0.42;88.27;99891.22;1695598;83;21157;-67
2020/12/29 09:17:40;;;;;;;49.30;25.15;;;;;;;0.44;88.27;99873.80;1695092;84;21077;-67
2020/12/29 09:20:17;;;;;;;34.25;19.48;;;;;;;0.47;88.29;99876.70;1755260;81;21058;-67
2020/12/29 09:23:03;;;;;;;39.92;22.45;;;;;;;0.47;88.30;99871.05;1758353;81;21069;-67
2020/12/29 09:25:42;;;;;;;40.28;20.95;;;;;;;0.49;88.31;99875.75;1758372;81;21545;-67
2020/12/29 09:28:26;;;;;;;43.00;24.25;;;;;;;0.51;88.32;99860.92;1758303;81;21117;-68
2020/12/29 09:31:00;;;;;;;35.83;20.35;;;;;;;0.53;88.33;99861.69;1757386;81;21118;-67
2020/12/29 09:33:29;;;;;;;45.75;24.18;;;;;;;0.54;88.34;99859.47;1758267;81;21089;-67
2020/12/29 09:36:02;;;;;;;37.33;20.65;;;;;;;0.56;88.37;99866.73;1758428;81;21354;-67
2020/12/29 09:38:30;;;;;;;43.17;22.85;;;;;;;0.57;88.37;99855.87;1758425;81;22048;-69
2020/12/29 09:41:01;;;;;;;32.03;18.20;;;;;;;0.57;88.36;99859.31;1758245;81;21179;-67
2020/12/29 09:43:30;;;;;;;41.37;23.35;;;;;;;0.59;88.42;99859.73;1758294;81;21113;-67
2020/12/29 09:46:00;;;;;;;36.88;20.20;;;;;;;0.60;88.43;99852.31;1758239;81;21086;-67
2020/12/29 09:48:27;;;;;;;37.40;19.57;;;;;;;0.61;88.41;99847.05;1737754;81;21066;-68
2020/12/29 09:50:57;;;;;;;47.30;23.20;;;;;;;0.64;88.44;99840.84;1728177;83;22903;-68
2020/12/29 09:53:25;;;;;;;41.65;24.90;;;;;;;0.65;88.43;99837.33;1728112;83;21097;-67
2020/12/29 09:55:54;;;;;;;34.35;19.50;;;;;;;0.67;88.43;99830.30;1728180;83;21572;-68
2020/12/29 09:58:22;;;;;;;37.78;20.43;;;;;;;0.69;88.49;99818.09;1728119;83;21201;-68
2020/12/29 10:00:50;;;;;;;42.13;21.52;;;;;;;0.68;88.45;99815.12;1728269;83;21418;-68
2020/12/29 10:03:19;;;;;;;40.30;21.87;;;;;;;0.71;88.50;99798.06;1728234;83;23018;-68
2020/12/29 10:05:49;;;;;;;49.73;24.98;;;;;;;0.72;88.52;99791.48;1729037;81;21093;-68
2020/12/29 10:08:17;;;;;;;35.80;18.73;;;;;;;0.72;88.52;99794.09;1728232;83;21362;-68
2020/12/29 10:10:45;;;;;;;47.83;25.77;;;;;;;0.75;88.53;99783.53;1728118;83;21098;-68
2020/12/29 10:13:13;;;;;;;44.20;24.05;;;;;;;0.77;88.56;99779.55;1728208;83;21437;-68
2020/12/29 10:15:40;;;;;;;48.42;24.32;;;;;;;0.78;88.56;99780.81;1728118;83;22068;-68
2020/12/29 10:18:08;;;;;;;29.23;17.87;;;;;;;0.79;88.56;99781.64;1731834;81;21086;-68
2020/12/29 10:20:36;;;;;;;40.63;20.60;;;;;;;0.79;88.57;99782.95;1698764;81;21073;-70
2020/12/29 10:23:04;;;;;;;39.88;21.60;;;;;;;0.81;88.59;99766.35;1697724;83;21153;-69
2020/12/29 10:25:32;;;;;;;36.23;18.95;;;;;;;0.82;88.60;99765.89;1698760;83;21149;-69
2020/12/29 10:27:59;;;;;;;31.45;17.40;;;;;;;0.83;88.61;99767.11;1698762;84;21907;-69
2020/12/29 10:30:27;;;;;;;29.67;16.52;;;;;;;0.85;88.62;99773.53;1698701;84;21099;-69
2020/12/29 10:32:55;;;;;;;50.05;26.82;;;;;;;0.86;88.63;99751.81;1698737;84;21074;-69
2020/12/29 10:35:22;;;;;;;30.75;17.32;;;;;;;0.89;88.64;99757.34;1698727;84;21571;-69
2020/12/29 10:37:50;;;;;;;42.50;23.35;;;;;;;0.91;88.67;99759.40;1670666;84;21161;-69
2020/12/29 10:40:18;;;;;;;36.83;22.22;;;;;;;0.92;88.65;99754.12;1670644;86;22748;-69
2020/12/29 10:42:46;;;;;;;42.40;23.65;;;;;;;0.92;88.66;99760.62;1670536;86;21093;-69
2020/12/29 10:45:15;;;;;;;40.90;21.42;;;;;;;0.94;88.65;99764.44;1670581;86;21073;-69
2020/12/29 10:47:43;;;;;;;40.65;22.17;;;;;;;0.94;88.67;99751.44;1670561;86;21153;-69
2020/12/29 10:50:10;;;;;;;49.65;24.05;;;;;;;0.95;88.70;99742.25;1670580;86;21144;-69
2020/12/29 10:52:38;;;;;;;48.65;24.15;;;;;;;0.97;88.69;99737.00;1670587;84;21599;-69
2020/12/29 10:55:06;;;;;;;51.20;22.75;;;;;;;1.00;88.71;99740.74;1671401;84;21223;-69
2020/12/29 10:57:34;;;;;;;43.50;24.12;;;;;;;1.04;88.71;99740.95;1670588;86;21153;-69
2020/12/29 11:00:02;;;;;;;38.02;21.30;;;;;;;1.09;88.75;99749.38;1670545;86;22696;-69
2020/12/29 11:02:30;;;;;;;42.73;23.07;;;;;;;1.12;88.76;99744.86;1670677;86;21146;-69
2020/12/29 11:04:58;;;;;;;28.30;17.32;;;;;;;1.19;88.77;99760.16;1670562;86;21855;-69
2020/12/29 11:07:26;;;;;;;42.17;22.60;;;;;;;1.24;88.82;99763.36;1670552;86;21104;-69
2020/12/29 11:09:55;;;;;;;35.80;19.90;;;;;;;1.28;88.83;99768.80;1700769;83;21485;-72
2020/12/29 11:12:23;;;;;;;56.85;25.12;;;;;;;1.33;88.85;99772.00;1693164;83;21132;-71
2020/12/29 11:14:50;;;;;;;43.80;21.45;;;;;;;1.37;88.87;99764.43;1697566;83;21587;-70
2020/12/29 11:17:18;;;;;;;70.10;33.08;;;;;;;1.41;88.89;99762.88;1674539;84;22627;-71
2020/12/29 11:19:49;;;;;;;70.90;30.88;;;;;;;1.45;88.90;99766.19;1694132;82;21079;-71
2020/12/29 11:22:18;;;;;;;67.97;28.45;;;;;;;1.49;88.92;99766.39;1736454;82;21059;-70
2020/12/29 11:24:45;;;;;;;83.45;38.08;;;;;;;1.53;88.93;99768.36;1692607;83;21091;-71
2020/12/29 11:27:13;;;;;;;70.10;30.37;;;;;;;1.55;88.96;99762.18;1671889;84;21145;-71
2020/12/29 11:29:40;;;;;;;87.42;38.45;;;;;;;1.58;88.95;99750.77;1675778;84;21909;-70